Time;durP1;ratioP1;P1;durP2;ratioP2;P2;SDS_P1;SDS_P2;PMS_P1;PMS_P2;Temp;Humidity;BMP_temperature;BMP_pressure;BME280_temperature;BME280_humidity;BME280_pressure;Samples;Min_cycle;Max_cycle;Signal;HPM_P1;HPM_P2
2023/06/05 00:00:53;;;;;;;9.00;4.22;;;12.10;95.90;;;;;;5076447;28;20515;-70
2023/06/05 00:03:19;;;;;;;7.80;3.88;;;12.10;96.10;;;;;;5076917;28;20048;-70
2023/06/05 00:05:45;;;;;;;23.52;4.60;;;12.10;96.20;;;;;;5094620;28;20036;-70
2023/06/05 00:08:11;;;;;;;13.60;4.40;;;12.00;96.40;;;;;;5076749;28;20587;-70
2023/06/05 00:10:37;;;;;;;11.20;4.75;;;12.00;96.30;;;;;;5076502;28;20118;-70
2023/06/05 00:13:02;;;;;;;7.07;3.88;;;11.90;96.50;;;;;;5076554;28;20121;-70
2023/06/05 00:15:28;;;;;;;6.57;4.00;;;11.90;96.70;;;;;;5076317;28;20444;-70
2023/06/05 00:17:55;;;;;;;6.93;4.07;;;11.80;96.70;;;;;;5076224;28;20124;-70
2023/06/05 00:20:20;;;;;;;8.23;4.82;;;11.80;96.90;;;;;;5076567;28;20067;-70
2023/06/05 00:22:47;;;;;;;7.47;4.35;;;11.70;97.00;;;;;;5076165;28;20493;-70
2023/06/05 00:25:13;;;;;;;7.40;4.70;;;11.70;97.10;;;;;;5076039;28;20385;-70
2023/06/05 00:27:40;;;;;;;6.60;4.15;;;11.70;97.20;;;;;;5076053;28;20202;-70
2023/06/05 00:30:08;;;;;;;6.90;4.38;;;11.60;97.30;;;;;;5076018;28;20036;-70
2023/06/05 00:32:34;;;;;;;6.85;4.25;;;11.60;97.50;;;;;;5059308;28;20036;-70
2023/06/05 00:35:00;;;;;;;6.65;4.30;;;11.50;97.60;;;;;;5076265;28;20043;-70
2023/06/05 00:37:26;;;;;;;6.72;4.63;;;11.50;97.70;;;;;;5094103;28;20039;-70
2023/06/05 00:39:52;;;;;;;5.55;3.90;;;11.50;97.70;;;;;;5076153;28;20055;-70
2023/06/05 00:42:18;;;;;;;6.78;4.20;;;11.50;97.90;;;;;;5076096;28;20039;-70
2023/06/05 00:44:43;;;;;;;6.35;4.07;;;11.50;97.90;;;;;;5094128;28;20420;-70
2023/06/05 00:47:10;;;;;;;7.85;4.32;;;11.40;98.00;;;;;;5094143;28;20071;-70
2023/06/05 00:49:36;;;;;;;8.45;4.50;;;11.30;98.20;;;;;;5075963;28;20123;-70
2023/06/05 00:52:02;;;;;;;8.68;4.57;;;11.30;98.40;;;;;;5075887;28;20040;-70
2023/06/05 00:54:28;;;;;;;7.85;4.20;;;11.30;98.50;;;;;;5058976;28;20119;-70
2023/06/05 00:56:53;;;;;;;9.93;4.65;;;11.20;98.50;;;;;;5075610;28;20097;-70
2023/06/05 00:59:20;;;;;;;9.13;5.00;;;11.20;98.70;;;;;;5075817;28;20040;-70
2023/06/05 01:01:47;;;;;;;7.22;4.63;;;11.20;98.90;;;;;;5075253;28;20039;-70
2023/06/05 01:04:13;;;;;;;7.93;4.53;;;11.20;99.10;;;;;;5075481;28;20538;-70
2023/06/05 01:06:40;;;;;;;8.38;4.57;;;11.20;99.20;;;;;;5075351;28;20052;-70
2023/06/05 01:09:08;;;;;;;8.07;4.63;;;11.20;99.30;;;;;;5075400;28;20385;-70
2023/06/05 01:11:48;;;;;;;7.38;4.68;;;11.20;99.40;;;;;;5075329;28;20105;-70
2023/06/05 01:14:32;;;;;;;9.23;5.35;;;11.20;99.50;;;;;;5075696;28;20079;-70
2023/06/05 01:17:00;;;;;;;7.47;4.75;;;11.20;99.70;;;;;;5075691;28;20523;-70
2023/06/05 01:19:28;;;;;;;9.05;5.63;;;11.20;99.80;;;;;;5075334;28;20044;-70
2023/06/05 01:21:55;;;;;;;7.35;4.90;;;11.20;99.90;;;;;;5075209;28;20044;-70
2023/06/05 01:24:25;;;;;;;7.18;4.60;;;11.20;99.90;;;;;;5075142;28;20048;-70
2023/06/05 01:27:03;;;;;;;8.25;4.90;;;11.10;99.90;;;;;;5075441;28;20043;-70
2023/06/05 01:29:52;;;;;;;7.80;4.45;;;11.10;99.90;;;;;;5058819;28;20097;-70
2023/06/05 01:32:39;;;;;;;5.82;3.83;;;11.10;99.90;;;;;;5075117;28;20036;-70
2023/06/05 01:35:10;;;;;;;8.20;5.03;;;11.00;99.90;;;;;;5075466;28;20181;-70
2023/06/05 01:37:40;;;;;;;10.65;4.88;;;10.90;99.90;;;;;;5075074;28;20046;-70
2023/06/05 01:40:19;;;;;;;5.82;4.32;;;10.90;99.90;;;;;;5075064;28;20044;-70
2023/06/05 01:42:46;;;;;;;6.70;4.85;;;10.90;99.90;;;;;;5075066;28;20043;-70
2023/06/05 01:45:13;;;;;;;7.05;4.80;;;10.80;99.90;;;;;;5074876;28;20038;-70
2023/06/05 01:47:39;;;;;;;7.05;4.88;;;10.70;99.90;;;;;;5075042;28;20385;-70
2023/06/05 01:50:07;;;;;;;7.50;5.00;;;10.70;99.90;;;;;;5076864;28;20040;-70
2023/06/05 01:52:34;;;;;;;6.95;5.32;;;10.70;99.90;;;;;;5079320;28;20097;-70
2023/06/05 01:55:03;;;;;;;8.02;5.25;;;10.70;99.90;;;;;;5079029;28;20048;-70
2023/06/05 01:57:31;;;;;;;5.40;4.72;;;10.70;99.90;;;;;;5079065;28;20056;-70
2023/06/05 01:59:56;;;;;;;7.97;4.70;;;10.60;99.90;;;;;;5078976;28;20390;-70
2023/06/05 02:02:22;;;;;;;8.90;5.20;;;10.50;99.90;;;;;;5078782;28;20077;-70
2023/06/05 02:04:48;;;;;;;7.35;4.70;;;10.50;99.90;;;;;;5079076;28;20080;-70
2023/06/05 02:07:14;;;;;;;7.05;5.88;;;10.50;99.90;;;;;;5078816;28;20519;-70
2023/06/05 02:09:40;;;;;;;8.40;5.57;;;10.50;99.90;;;;;;5078761;28;20488;-70
2023/06/05 02:12:07;;;;;;;6.25;5.13;;;10.40;99.90;;;;;;5078636;28;20044;-70
2023/06/05 02:14:37;;;;;;;6.78;5.90;;;10.40;99.90;;;;;;5078979;28;20083;-70
2023/06/05 02:17:05;;;;;;;8.00;4.60;;;10.50;99.90;;;;;;5078678;28;20040;-70
2023/06/05 02:19:32;;;;;;;7.55;4.90;;;10.50;99.90;;;;;;5078591;28;20040;-70
2023/06/05 02:21:57;;;;;;;6.18;5.18;;;10.40;99.90;;;;;;5078434;28;20036;-70
2023/06/05 02:24:24;;;;;;;8.55;5.35;;;10.40;99.90;;;;;;5078427;28;20028;-70
2023/06/05 02:26:51;;;;;;;10.15;5.50;;;10.40;99.90;;;;;;5078514;28;20040;-70
2023/06/05 02:29:16;;;;;;;7.45;5.30;;;10.30;99.90;;;;;;5078675;28;20516;-70
2023/06/05 02:31:43;;;;;;;7.40;5.50;;;10.30;99.90;;;;;;5078245;28;20121;-70
2023/06/05 02:34:08;;;;;;;7.85;6.03;;;10.30;99.90;;;;;;5078324;28;20032;-70
2023/06/05 02:36:35;;;;;;;9.88;5.82;;;10.30;99.90;;;;;;5078298;28;20182;-70
2023/06/05 02:39:01;;;;;;;8.98;5.43;;;10.30;99.90;;;;;;5078157;28;20048;-70
2023/06/05 02:41:27;;;;;;;7.85;5.25;;;10.30;99.90;;;;;;5078417;28;20043;-70
2023/06/05 02:43:54;;;;;;;7.35;5.60;;;10.40;99.90;;;;;;5078114;28;20511;-70
2023/06/05 02:46:21;;;;;;;8.50;5.70;;;10.40;99.90;;;;;;5078014;28;20044;-70
2023/06/05 02:48:47;;;;;;;6.70;5.57;;;10.40;99.90;;;;;;5078120;28;20051;-70
2023/06/05 02:51:13;;;;;;;9.07;5.78;;;10.50;99.90;;;;;;5077980;28;20044;-70
2023/06/05 02:53:39;;;;;;;8.52;5.30;;;10.50;99.90;;;;;;5077954;28;20035;-70
2023/06/05 02:56:05;;;;;;;6.47;5.10;;;10.50;99.90;;;;;;5077881;28;20127;-70
2023/06/05 02:58:34;;;;;;;7.43;5.28;;;10.50;99.90;;;;;;5078150;28;20082;-70
2023/06/05 03:01:01;;;;;;;7.78;6.00;;;10.50;99.90;;;;;;5077400;28;20127;-70
2023/06/05 03:03:31;;;;;;;8.38;5.97;;;10.50;99.90;;;;;;5077767;28;20040;-70
2023/06/05 03:06:04;;;;;;;12.40;6.18;;;10.50;99.90;;;;;;5077644;28;20040;-70
2023/06/05 03:08:31;;;;;;;;;;;10.60;99.90;;;;;;5078455;28;20442;-69
2023/06/05 03:10:56;;;;;;;10.05;5.90;;;10.40;99.90;;;;;;5077660;28;19916;-69
2023/06/05 03:13:22;;;;;;;6.70;5.95;;;10.40;99.90;;;;;;5077933;28;20092;-69
2023/06/05 03:15:48;;;;;;;9.02;6.40;;;10.50;99.90;;;;;;5077667;28;20515;-69
2023/06/05 03:18:13;;;;;;;8.45;5.85;;;10.50;99.90;;;;;;5095891;28;20040;-69
2023/06/05 03:20:39;;;;;;;8.13;6.20;;;10.50;99.90;;;;;;5077461;28;20075;-69
2023/06/05 03:23:05;;;;;;;9.75;6.57;;;10.50;99.90;;;;;;5077358;28;20127;-69
2023/06/05 03:25:30;;;;;;;6.80;5.88;;;10.50;99.90;;;;;;5077325;28;20044;-69
2023/06/05 03:27:56;;;;;;;8.20;6.47;;;10.50;99.90;;;;;;5077373;28;20032;-69
2023/06/05 03:30:22;;;;;;;7.70;6.50;;;10.40;99.90;;;;;;5077330;28;20032;-69
2023/06/05 03:32:47;;;;;;;9.98;6.80;;;10.40;99.90;;;;;;5077252;28;20040;-69
2023/06/05 03:35:13;;;;;;;12.48;6.82;;;10.40;99.90;;;;;;5077437;28;20052;-69
2023/06/05 03:37:39;;;;;;;8.10;6.50;;;10.40;99.90;;;;;;5077190;28;20478;-69
2023/06/05 03:40:05;;;;;;;7.80;6.53;;;10.30;99.90;;;;;;5077368;28;20040;-69
2023/06/05 03:42:31;;;;;;;9.77;6.38;;;10.30;99.90;;;;;;5077203;28;20101;-69
2023/06/05 03:44:56;;;;;;;11.38;7.10;;;10.30;99.90;;;;;;5076969;28;20497;-69
2023/06/05 03:47:23;;;;;;;8.63;6.68;;;10.30;99.90;;;;;;5095054;28;20032;-70
2023/06/05 03:49:50;;;;;;;9.10;6.78;;;10.30;99.90;;;;;;5076975;28;20459;-70
2023/06/05 03:52:16;;;;;;;9.45;7.03;;;10.30;99.90;;;;;;5076775;28;20083;-69
2023/06/05 03:54:44;;;;;;;10.07;7.53;;;10.40;99.90;;;;;;5076870;28;20055;-69
2023/06/05 03:57:12;;;;;;;8.38;7.55;;;10.40;99.90;;;;;;5077016;28;20079;-69
2023/06/05 03:59:37;;;;;;;9.82;7.85;;;10.40;99.90;;;;;;5076978;28;20036;-69
2023/06/05 04:02:04;;;;;;;9.80;6.80;;;10.40;99.90;;;;;;5076463;28;20061;-69
2023/06/05 04:04:30;;;;;;;12.75;7.45;;;10.40;99.90;;;;;;5076557;28;20516;-70
2023/06/05 04:06:56;;;;;;;12.32;7.95;;;10.50;99.90;;;;;;5076920;28;20097;-70
2023/06/05 04:09:22;;;;;;;9.27;7.05;;;10.50;99.90;;;;;;5076504;28;20484;-70
2023/06/05 04:11:49;;;;;;;11.48;7.10;;;10.50;99.90;;;;;;5075981;28;20047;-70
2023/06/05 04:14:15;;;;;;;10.38;7.28;;;10.60;99.90;;;;;;5076343;28;20048;-70
2023/06/05 04:16:44;;;;;;;10.38;7.45;;;10.60;99.90;;;;;;5076809;28;20047;-70
2023/06/05 04:19:11;;;;;;;10.80;6.63;;;10.70;99.90;;;;;;5076320;28;20080;-70
2023/06/05 04:21:37;;;;;;;10.93;7.03;;;10.70;99.90;;;;;;5076395;28;20051;-70
2023/06/05 04:24:08;;;;;;;11.05;7.30;;;10.80;99.90;;;;;;5076435;28;20040;-70
2023/06/05 04:26:35;;;;;;;13.13;7.50;;;10.80;99.90;;;;;;5059499;28;20036;-70
2023/06/05 04:29:02;;;;;;;11.50;6.75;;;10.90;99.90;;;;;;5076091;28;20046;-70
2023/06/05 04:31:32;;;;;;;9.50;6.90;;;10.90;99.90;;;;;;5075959;28;20076;-70
2023/06/05 04:33:58;;;;;;;9.40;6.85;;;11.00;99.90;;;;;;5076041;28;20416;-70
2023/06/05 04:36:27;;;;;;;9.82;7.55;;;11.00;99.90;;;;;;5076219;28;20085;-70
2023/06/05 04:38:53;;;;;;;8.65;6.80;;;11.10;99.90;;;;;;5075924;28;20488;-70
2023/06/05 04:41:18;;;;;;;6.68;5.75;;;11.10;99.90;;;;;;5075893;28;20127;-70
2023/06/05 04:43:44;;;;;;;7.78;5.82;;;11.20;99.90;;;;;;5075878;28;20113;-70
2023/06/05 04:46:09;;;;;;;8.95;5.97;;;11.30;99.90;;;;;;5059113;28;20052;-70
2023/06/05 04:48:36;;;;;;;11.52;5.72;;;11.30;99.90;;;;;;5059232;28;20047;-70
2023/06/05 04:51:02;;;;;;;6.75;5.72;;;11.40;99.90;;;;;;5075671;28;20090;-70
2023/06/05 04:53:33;;;;;;;9.20;5.38;;;11.40;99.90;;;;;;5075682;28;20043;-70
2023/06/05 04:56:00;;;;;;;11.45;5.88;;;11.50;99.90;;;;;;5075955;28;20101;-70
2023/06/05 04:58:26;;;;;;;10.05;5.82;;;11.60;99.90;;;;;;5075631;28;20047;-70
2023/06/05 05:00:51;;;;;;;12.43;6.70;;;11.60;99.90;;;;;;5075381;28;20050;-70
2023/06/05 05:03:17;;;;;;;7.22;5.78;;;11.70;99.90;;;;;;5075606;28;20044;-70
2023/06/05 05:05:43;;;;;;;7.57;5.57;;;11.80;99.90;;;;;;5075635;28;20036;-70
2023/06/05 05:08:08;;;;;;;8.63;5.40;;;11.90;99.90;;;;;;5075526;28;20496;-70
2023/06/05 05:10:34;;;;;;;7.30;4.95;;;11.90;99.90;;;;;;5075785;28;20460;-70
2023/06/05 05:13:01;;;;;;;8.27;4.90;;;11.90;99.90;;;;;;5075278;28;20044;-70
2023/06/05 05:15:28;;;;;;;7.88;4.43;;;12.00;99.90;;;;;;5075394;28;20119;-70
2023/06/05 05:17:55;;;;;;;7.57;4.50;;;12.10;99.90;;;;;;5075400;28;20051;-70
2023/06/05 05:20:21;;;;;;;6.72;4.97;;;12.20;99.90;;;;;;5075345;28;20048;-70
2023/06/05 05:22:47;;;;;;;7.63;4.80;;;12.20;99.90;;;;;;5075441;28;20050;-70
2023/06/05 05:25:13;;;;;;;8.82;4.93;;;12.20;99.90;;;;;;5057610;28;20094;-70
2023/06/05 05:27:38;;;;;;;9.85;5.13;;;12.30;99.90;;;;;;5075504;28;20047;-70
2023/06/05 05:30:04;;;;;;;6.40;4.38;;;12.30;99.90;;;;;;5075394;28;20373;-70
2023/06/05 05:32:30;;;;;;;9.07;5.00;;;12.40;99.90;;;;;;5075160;28;20523;-70
2023/06/05 05:34:55;;;;;;;7.30;5.07;;;12.50;99.90;;;;;;5075211;28;20048;-70
2023/06/05 05:37:22;;;;;;;8.57;5.00;;;12.50;99.90;;;;;;5075377;28;20157;-70
2023/06/05 05:39:47;;;;;;;6.90;5.63;;;12.50;99.90;;;;;;5075396;28;20056;-70
2023/06/05 05:42:13;;;;;;;8.93;4.90;;;12.60;99.90;;;;;;5074955;28;20481;-70
2023/06/05 05:44:42;;;;;;;8.85;4.90;;;12.70;99.90;;;;;;5058220;28;20097;-70
2023/06/05 05:47:08;;;;;;;5.78;5.18;;;12.70;99.90;;;;;;5075310;28;20048;-70
2023/06/05 05:49:34;;;;;;;8.07;5.07;;;12.80;99.90;;;;;;5075041;28;20093;-70
2023/06/05 05:52:00;;;;;;;5.43;4.78;;;12.90;99.90;;;;;;5075228;28;20036;-70
2023/06/05 05:54:27;;;;;;;6.50;5.25;;;12.90;99.90;;;;;;5075003;28;20400;-70
2023/06/05 05:56:55;;;;;;;6.15;5.10;;;13.00;99.90;;;;;;5074953;28;20044;-70
2023/06/05 05:59:21;;;;;;;7.63;5.50;;;13.00;99.90;;;;;;5092969;28;20036;-70
2023/06/05 06:01:48;;;;;;;6.90;5.10;;;13.10;99.90;;;;;;5075008;28;20039;-70
2023/06/05 06:04:16;;;;;;;6.50;5.50;;;13.10;99.90;;;;;;5075101;28;20556;-70
2023/06/05 06:06:41;;;;;;;7.15;5.22;;;13.10;99.90;;;;;;5074790;28;20083;-70
2023/06/05 06:09:08;;;;;;;8.02;5.43;;;13.20;99.90;;;;;;5075092;28;20068;-70
2023/06/05 06:11:36;;;;;;;8.52;5.47;;;13.30;99.90;;;;;;5074721;28;20111;-70
2023/06/05 06:14:01;;;;;;;6.43;5.45;;;13.30;99.90;;;;;;5075317;28;20032;-70
2023/06/05 06:16:27;;;;;;;8.57;5.53;;;13.40;99.90;;;;;;5074684;28;20440;-70
2023/06/05 06:18:54;;;;;;;6.35;4.63;;;13.60;99.90;;;;;;5074764;28;20048;-70
2023/06/05 06:21:20;;;;;;;10.43;4.43;;;13.70;99.90;;;;;;5074602;28;20043;-70
2023/06/05 06:23:47;;;;;;;6.63;3.97;;;13.80;99.90;;;;;;5075021;28;20036;-70
2023/06/05 06:26:14;;;;;;;7.57;3.90;;;13.90;99.90;;;;;;5074673;28;20044;-70
2023/06/05 06:28:40;;;;;;;5.55;3.70;;;14.10;99.90;;;;;;5074647;28;20111;-70
2023/06/05 06:31:07;;;;;;;5.43;3.88;;;14.20;99.90;;;;;;5074509;28;20051;-70
2023/06/05 06:33:32;;;;;;;7.35;3.22;;;14.30;99.90;;;;;;5074602;28;20040;-70
2023/06/05 06:35:58;;;;;;;5.53;3.60;;;14.30;99.90;;;;;;5076155;28;20043;-70
2023/06/05 06:38:30;;;;;;;5.78;3.70;;;14.30;99.90;;;;;;5096749;28;20074;-70
2023/06/05 06:40:57;;;;;;;7.82;3.30;;;14.30;99.90;;;;;;5061524;28;20032;-70
2023/06/05 06:43:22;;;;;;;10.90;4.07;;;14.30;99.90;;;;;;5078236;28;20504;-70
2023/06/05 06:45:49;;;;;;;7.40;3.40;;;14.30;99.70;;;;;;5078101;28;20093;-70
2023/06/05 06:48:16;;;;;;;10.85;4.03;;;14.30;99.50;;;;;;5061402;28;20036;-70
2023/06/05 06:50:42;;;;;;;5.80;3.22;;;14.40;99.30;;;;;;5078277;28;20043;-70
2023/06/05 06:53:08;;;;;;;6.15;3.60;;;14.30;99.00;;;;;;5077982;28;20408;-70
2023/06/05 06:55:34;;;;;;;6.93;3.20;;;14.40;98.90;;;;;;5078014;28;20040;-70
2023/06/05 06:57:59;;;;;;;10.68;3.80;;;14.40;98.80;;;;;;5077962;28;20048;-70
2023/06/05 07:00:25;;;;;;;7.78;3.60;;;14.50;98.80;;;;;;5078211;28;20046;-70
2023/06/05 07:02:51;;;;;;;4.55;3.42;;;14.60;98.70;;;;;;5077703;28;20040;-70
2023/06/05 07:05:19;;;;;;;6.32;3.40;;;14.70;98.40;;;;;;5077808;28;20074;-70
2023/06/05 07:07:45;;;;;;;4.40;3.40;;;14.70;98.50;;;;;;5095856;28;20097;-70
2023/06/05 07:10:11;;;;;;;4.50;3.05;;;14.80;98.00;;;;;;5077675;28;20036;-70
2023/06/05 07:12:37;;;;;;;4.57;3.20;;;14.90;97.80;;;;;;5077596;28;20036;-70
2023/06/05 07:15:03;;;;;;;6.05;3.60;;;15.00;97.30;;;;;;5077583;28;20097;-70
2023/06/05 07:17:30;;;;;;;6.25;3.28;;;15.10;97.40;;;;;;5077565;28;20036;-70
2023/06/05 07:19:56;;;;;;;5.90;3.35;;;15.20;97.30;;;;;;5077565;28;20097;-70
2023/06/05 07:22:24;;;;;;;13.95;3.80;;;15.30;97.00;;;;;;5077604;28;20443;-70
2023/06/05 07:24:50;;;;;;;8.30;3.08;;;15.30;96.80;;;;;;5077425;28;20105;-70
2023/06/05 07:27:16;;;;;;;7.32;3.03;;;15.40;96.40;;;;;;5077378;28;20061;-70
2023/06/05 07:29:42;;;;;;;11.13;3.63;;;15.60;96.30;;;;;;5077583;28;20157;-70
2023/06/05 07:32:08;;;;;;;5.95;2.72;;;15.70;96.10;;;;;;5077222;28;20063;-70
2023/06/05 07:34:36;;;;;;;7.47;3.30;;;15.90;95.70;;;;;;5077255;28;20059;-70
2023/06/05 07:37:02;;;;;;;7.55;3.10;;;16.00;95.40;;;;;;5077154;28;20036;-70
2023/06/05 07:39:28;;;;;;;4.95;3.20;;;16.10;95.00;;;;;;5077138;28;20058;-70
2023/06/05 07:41:54;;;;;;;5.05;2.78;;;16.20;95.10;;;;;;5077059;28;20047;-70
2023/06/05 07:44:23;;;;;;;3.97;2.28;;;16.30;94.30;;;;;;5077087;28;20040;-70
2023/06/05 07:46:50;;;;;;;3.85;2.28;;;16.40;94.20;;;;;;5076122;28;20539;-70
2023/06/05 07:49:16;;;;;;;4.10;2.60;;;16.40;93.60;;;;;;5076813;28;20072;-70
2023/06/05 07:51:42;;;;;;;5.18;2.83;;;16.30;93.30;;;;;;5076840;28;20071;-70
2023/06/05 07:54:10;;;;;;;4.97;2.40;;;16.40;93.20;;;;;;5076874;28;20040;-70
2023/06/05 07:56:36;;;;;;;4.47;2.20;;;16.50;92.80;;;;;;5077050;28;20055;-70
2023/06/05 07:59:03;;;;;;;6.15;2.53;;;16.60;92.80;;;;;;5060298;28;20072;-70
2023/06/05 08:01:30;;;;;;;3.30;2.38;;;16.70;92.60;;;;;;5076779;28;20043;-70
2023/06/05 08:03:55;;;;;;;3.30;2.22;;;16.80;92.20;;;;;;5076628;28;20039;-70
2023/06/05 08:06:24;;;;;;;3.40;2.47;;;16.90;91.80;;;;;;5076479;28;20055;-70
2023/06/05 08:08:50;;;;;;;3.97;2.50;;;17.00;91.20;;;;;;5076787;28;20069;-70
2023/06/05 08:11:16;;;;;;;5.28;2.25;;;17.10;90.70;;;;;;5076388;28;20035;-70
2023/06/05 08:13:42;;;;;;;3.42;2.30;;;17.20;90.30;;;;;;5076439;28;20040;-70
2023/06/05 08:16:07;;;;;;;4.15;2.25;;;17.30;90.10;;;;;;5076446;28;20043;-70
2023/06/05 08:18:33;;;;;;;4.60;2.60;;;17.40;89.70;;;;;;5076303;28;20040;-70
2023/06/05 08:20:59;;;;;;;4.82;2.28;;;17.40;89.20;;;;;;5076208;28;20040;-70
2023/06/05 08:23:26;;;;;;;3.20;2.20;;;17.60;89.10;;;;;;5076320;28;20044;-70
2023/06/05 08:25:51;;;;;;;3.10;2.00;;;17.60;88.60;;;;;;5076337;28;20063;-70
2023/06/05 08:28:17;;;;;;;3.90;2.08;;;17.80;88.10;;;;;;5076990;28;20489;-70
2023/06/05 08:30:44;;;;;;;5.53;2.30;;;17.90;88.10;;;;;;5076360;28;20040;-70
2023/06/05 08:33:09;;;;;;;3.40;2.30;;;17.90;86.60;;;;;;5059481;28;20061;-70
2023/06/05 08:35:35;;;;;;;2.97;2.35;;;18.10;86.50;;;;;;5076330;28;20052;-70
2023/06/05 08:38:03;;;;;;;3.28;2.38;;;18.10;85.90;;;;;;5059608;28;20400;-70
2023/06/05 08:40:29;;;;;;;4.55;2.20;;;18.20;85.70;;;;;;5075930;28;20039;-70
2023/06/05 08:42:55;;;;;;;4.57;2.80;;;18.30;85.10;;;;;;5076097;28;20046;-70
2023/06/05 08:45:21;;;;;;;4.63;2.60;;;18.40;84.60;;;;;;5094493;28;20044;-70
2023/06/05 08:47:51;;;;;;;4.20;2.33;;;18.60;84.30;;;;;;5075794;28;20405;-70
2023/06/05 08:50:16;;;;;;;3.70;1.90;;;18.80;83.80;;;;;;5075802;28;20504;-70
2023/06/05 08:52:45;;;;;;;2.72;1.55;;;18.90;81.60;;;;;;5075643;28;20044;-70
2023/06/05 08:55:11;;;;;;;3.83;2.10;;;19.00;81.70;;;;;;5075656;28;20048;-70
2023/06/05 08:57:41;;;;;;;5.07;2.20;;;19.00;80.90;;;;;;5075602;28;20047;-70
2023/06/05 09:00:14;;;;;;;7.85;2.20;;;19.20;80.50;;;;;;5075379;28;20093;-70
2023/06/05 09:02:46;;;;;;;3.78;1.83;;;19.20;78.90;;;;;;5075736;28;20052;-70
2023/06/05 09:05:16;;;;;;;4.25;1.83;;;19.20;79.20;;;;;;5075718;28;20055;-70
2023/06/05 09:07:42;;;;;;;5.18;1.58;;;19.40;79.50;;;;;;5075507;28;20060;-70
2023/06/05 09:10:25;;;;;;;2.35;1.70;;;19.60;78.70;;;;;;5075508;28;20091;-70
2023/06/05 09:12:53;;;;;;;;;;;19.70;76.10;;;;;;5075843;28;20052;-70
2023/06/05 09:15:28;;;;;;;3.42;1.70;;;19.70;76.70;;;;;;5075368;28;19920;-70
2023/06/05 09:18:10;;;;;;;2.42;1.73;;;19.80;76.20;;;;;;5093742;28;20070;-70
2023/06/05 09:20:38;;;;;;;3.75;1.73;;;19.90;75.90;;;;;;5075389;28;20040;-70
2023/06/05 09:23:28;;;;;;;2.80;1.77;;;19.90;75.80;;;;;;5075278;28;20051;-70
2023/06/05 09:25:58;;;;;;;4.30;2.17;;;20.00;74.90;;;;;;5075199;28;20044;-70
2023/06/05 09:28:25;;;;;;;4.40;2.40;;;20.20;75.30;;;;;;5075250;28;20042;-70
2023/06/05 09:30:57;;;;;;;6.15;1.75;;;20.30;74.80;;;;;;5075134;28;20079;-70
2023/06/05 09:33:37;;;;;;;5.20;2.00;;;20.40;73.60;;;;;;5075212;28;20039;-70
2023/06/05 09:36:12;;;;;;;6.10;2.00;;;20.50;73.80;;;;;;5075435;28;20069;-70
2023/06/05 09:38:41;;;;;;;5.82;2.28;;;20.70;73.20;;;;;;5075159;28;20048;-70
2023/06/05 09:41:09;;;;;;;4.38;2.05;;;20.80;73.20;;;;;;5075306;28;20067;-70
2023/06/05 09:43:39;;;;;;;3.60;1.83;;;20.90;73.00;;;;;;5075070;28;20078;-70
2023/06/05 09:46:10;;;;;;;3.85;1.67;;;21.00;72.20;;;;;;5075048;28;20039;-70
2023/06/05 09:48:36;;;;;;;3.72;1.90;;;21.10;71.40;;;;;;5075065;28;20044;-70
2023/06/05 09:51:13;;;;;;;5.65;2.70;;;21.20;71.40;;;;;;5075248;28;20061;-70
2023/06/05 09:53:45;;;;;;;4.47;2.55;;;21.30;70.30;;;;;;5075050;28;20040;-70
2023/06/05 09:56:13;;;;;;;3.53;2.42;;;21.40;69.90;;;;;;5075046;28;20040;-70
2023/06/05 09:58:44;;;;;;;7.25;2.67;;;21.50;70.60;;;;;;5074988;28;20048;-70
2023/06/05 10:01:12;;;;;;;5.43;2.38;;;21.50;69.40;;;;;;5074761;28;20505;-70
2023/06/05 10:03:42;;;;;;;3.67;2.17;;;21.50;69.00;;;;;;5075211;28;20048;-70
2023/06/05 10:06:08;;;;;;;5.70;2.13;;;21.70;69.30;;;;;;5074944;28;20040;-70
2023/06/05 10:08:35;;;;;;;6.38;2.63;;;21.80;69.40;;;;;;5092913;28;20040;-70
2023/06/05 10:11:01;;;;;;;6.47;2.40;;;21.80;68.60;;;;;;5076507;28;20046;-70
2023/06/05 10:13:28;;;;;;;7.47;2.67;;;22.00;69.40;;;;;;5078828;28;20040;-70
2023/06/05 10:15:56;;;;;;;4.00;2.65;;;22.10;69.90;;;;;;5078789;28;20055;-70
2023/06/05 10:18:22;;;;;;;5.10;2.75;;;22.20;68.80;;;;;;5078887;28;20078;-70
2023/06/05 10:20:48;;;;;;;7.03;2.40;;;22.20;67.70;;;;;;5078835;28;20497;-70
2023/06/05 10:23:19;;;;;;;4.15;2.42;;;22.30;67.10;;;;;;5061924;28;20070;-70
2023/06/05 10:25:46;;;;;;;3.92;2.50;;;22.40;66.90;;;;;;5078496;28;20051;-70
2023/06/05 10:28:44;;;;;;;7.80;2.55;;;22.40;66.60;;;;;;5078750;28;20046;-70
2023/06/05 10:31:17;;;;;;;5.20;2.58;;;22.40;65.50;;;;;;5077842;28;20532;-70
2023/06/05 10:34:07;;;;;;;3.72;2.25;;;22.50;66.70;;;;;;5078498;28;20097;-70
2023/06/05 10:36:58;;;;;;;4.57;2.80;;;22.70;64.80;;;;;;5078652;28;20077;-70
2023/06/05 10:39:25;;;;;;;3.85;2.67;;;22.90;65.60;;;;;;5078288;28;20040;-70
2023/06/05 10:41:51;;;;;;;6.68;2.50;;;23.00;64.80;;;;;;5078217;28;20044;-70
2023/06/05 10:44:17;;;;;;;4.50;2.30;;;23.00;63.80;;;;;;5078154;28;20055;-70
2023/06/05 10:46:43;;;;;;;4.60;2.55;;;23.10;63.90;;;;;;5078097;28;20044;-70
2023/06/05 10:49:23;;;;;;;6.75;2.72;;;23.20;63.60;;;;;;5078117;28;20040;-70
2023/06/05 10:51:53;;;;;;;7.47;3.33;;;23.10;63.60;;;;;;5078327;28;20040;-70
2023/06/05 10:54:22;;;;;;;4.22;3.15;;;23.20;62.80;;;;;;5078057;28;20068;-70
2023/06/05 10:57:01;;;;;;;7.20;2.95;;;23.30;62.90;;;;;;5078012;28;20527;-70
2023/06/05 10:59:34;;;;;;;3.70;2.67;;;23.50;62.60;;;;;;5078278;28;20054;-70
2023/06/05 11:02:08;;;;;;;5.38;3.00;;;23.60;63.20;;;;;;5077625;28;20052;-70
2023/06/05 11:05:04;;;;;;;4.47;3.30;;;23.70;61.60;;;;;;5077863;28;20046;-70
2023/06/05 11:07:30;;;;;;;5.57;3.40;;;23.80;60.00;;;;;;5077830;28;20126;-70
2023/06/05 11:10:01;;;;;;;4.57;3.20;;;23.90;61.60;;;;;;5077774;28;20040;-70
2023/06/05 11:12:50;;;;;;;6.27;3.33;;;24.00;60.50;;;;;;5077719;28;20044;-70
2023/06/05 11:15:36;;;;;;;7.45;3.33;;;24.10;60.40;;;;;;5062986;28;20109;-70
2023/06/05 11:18:28;;;;;;;5.95;2.92;;;24.20;60.70;;;;;;5095734;28;20047;-70
2023/06/05 11:20:55;;;;;;;6.63;2.80;;;24.40;59.80;;;;;;5077437;28;20548;-70
2023/06/05 11:23:21;;;;;;;8.70;2.83;;;24.40;60.50;;;;;;5077693;28;20058;-70
2023/06/05 11:25:48;;;;;;;4.40;3.33;;;24.50;60.00;;;;;;5077354;28;20044;-70
2023/06/05 11:28:38;;;;;;;5.50;3.13;;;24.60;58.30;;;;;;5077439;28;20074;-70
2023/06/05 11:31:04;;;;;;;5.38;3.17;;;24.60;58.70;;;;;;5077522;28;20031;-70
2023/06/05 11:33:30;;;;;;;4.93;2.90;;;24.70;59.50;;;;;;5095669;28;20036;-70
2023/06/05 11:36:00;;;;;;;5.43;3.22;;;24.80;59.00;;;;;;5077236;28;20127;-70
2023/06/05 11:38:25;;;;;;;6.30;3.08;;;24.90;58.50;;;;;;5077201;28;20052;-70
2023/06/05 11:40:54;;;;;;;7.13;3.45;;;25.00;58.80;;;;;;5077381;28;20085;-70
2023/06/05 11:43:21;;;;;;;7.63;3.08;;;25.10;58.20;;;;;;5077116;28;20505;-70
2023/06/05 11:45:57;;;;;;;5.50;3.50;;;25.10;58.00;;;;;;5077067;28;20382;-70
2023/06/05 11:48:27;;;;;;;6.70;2.92;;;25.10;57.70;;;;;;5076990;28;20043;-70
2023/06/05 11:51:05;;;;;;;7.05;3.30;;;25.10;57.70;;;;;;5076872;28;20047;-70
2023/06/05 11:53:32;;;;;;;6.72;3.63;;;25.10;57.00;;;;;;5076999;28;20037;-70
2023/06/05 11:58:38;;;;;;;7.50;3.65;;;25.30;57.20;;;;;;5076780;28;20504;-70
2023/06/05 12:01:12;;;;;;;4.45;3.17;;;25.50;57.60;;;;;;5076755;28;20510;-70
2023/06/05 12:03:39;;;;;;;9.32;3.65;;;25.40;55.60;;;;;;5076726;28;20611;-70
2023/06/05 12:06:05;;;;;;;6.57;3.92;;;25.50;56.50;;;;;;5076593;28;20123;-70
2023/06/05 12:08:33;;;;;;;5.00;2.75;;;25.70;56.30;;;;;;5095154;28;20048;-70
2023/06/05 12:11:03;;;;;;;5.13;2.78;;;25.80;55.70;;;;;;5076412;28;20484;-70
2023/06/05 12:13:52;;;;;;;5.22;3.17;;;25.80;55.90;;;;;;5076541;28;20036;-70
2023/06/05 12:16:18;;;;;;;4.47;3.22;;;25.90;55.70;;;;;;5076458;28;20036;-70
2023/06/05 12:18:45;;;;;;;4.30;3.10;;;25.90;55.90;;;;;;5076456;28;20039;-70
2023/06/05 12:21:21;;;;;;;8.70;3.80;;;25.90;56.10;;;;;;5076302;28;20520;-70
2023/06/05 12:23:47;;;;;;;15.20;3.20;;;26.10;55.40;;;;;;5076278;28;20488;-70
2023/06/05 12:26:15;;;;;;;5.93;3.13;;;26.10;56.20;;;;;;5094897;28;20081;-70
2023/06/05 12:28:42;;;;;;;7.00;3.17;;;26.10;55.60;;;;;;5076499;28;20063;-70
2023/06/05 12:31:07;;;;;;;5.40;2.83;;;26.10;55.50;;;;;;5076110;28;20078;-70
2023/06/05 12:33:45;;;;;;;6.47;3.40;;;26.10;56.30;;;;;;5075983;28;20071;-70
2023/06/05 12:36:10;;;;;;;8.68;3.30;;;26.20;55.10;;;;;;5076377;28;20040;-70
2023/06/05 12:38:38;;;;;;;5.50;3.30;;;26.30;55.40;;;;;;5075961;28;20401;-70
2023/06/05 12:41:06;;;;;;;4.43;2.80;;;26.30;54.80;;;;;;5059264;28;20040;-70
2023/06/05 12:43:32;;;;;;;9.15;2.60;;;26.30;54.20;;;;;;5094062;28;20043;-70
2023/06/05 12:45:58;;;;;;;5.28;3.17;;;26.40;55.00;;;;;;5075960;28;20044;-70
2023/06/05 12:48:23;;;;;;;7.22;2.55;;;26.40;54.10;;;;;;5075767;28;20554;-70
2023/06/05 12:50:50;;;;;;;6.53;2.78;;;26.50;55.30;;;;;;5075750;28;20040;-70
2023/06/05 12:53:16;;;;;;;4.93;3.13;;;26.60;54.90;;;;;;5075788;28;20055;-70